Flight Number: AVA1702 Duration: 1:00
Departure: Frankfurt am Main (EDDF) at 16:00 Distance: 312.284 Nm
Arrival: Venezia Marco Polo (LIPZ) at 17:00 Equipment: ATR72

Weather Information
Frankfurt / M-Flughafen, Germany (EDDF) 50-03N 008-36E 113M May 25, 2024 - 09:20 PM EDT / 2024.05.26 0120 UTC
Wind: from the E (090 degrees) at 6 MPH (5 KT):0
Visibility: greater than 7 mile(s):0 Temperature: 51 F (11 C) Dew Point: 50 F (10 C) Relative Humidity: 93% Pressure (altimeter): 30.03 in. Hg (1017 hPa)
ob: EDDF 260120Z AUTO 09005KT CAVOK 11/10 Q1017 NOSIG cycle: 1
Sunrise: 03:29 Sunset: 19:16 (UTC)

Venezia / Tessera, Italy (LIPZ) 45-30N 012-20E 6M May 25, 2024 - 09:20 PM EDT / 2024.05.26 0120 UTC
Wind: from the W (280 degrees) at 3 MPH (3 KT):0
Visibility: greater than 7 mile(s):0 Temperature: 57 F (14 C) Dew Point: 53 F (12 C) Relative Humidity: 87% Pressure (altimeter): 30.00 in. Hg (1016 hPa)
ob: LIPZ 260120Z 28003KT CAVOK 14/12 Q1016 NOSIG cycle: 1
Sunrise: 03:32 Sunset: 18:43 (UTC)

TAF:2024/05/25 18:21 TAF LIPZ 251700Z 2518/2624 01006KT 9999 SCT040

This route has never been flown.

Route map